Greenville-Spartanburg International Airport (GSP)

 

Airport Diagram
Current Weather/Forecast (MVFR Conditions)
METAR KGSP 260553Z AUTO 00000KT 5SM BR OVC075 10/09 A2997 RMK AO2 SLP144 60000 T01000089 10133 20089 53013 $
TAF KGSP 260520Z 2606/2706 34004KT 2SM BR SCT006 BKN100 TEMPO 2606/2610 1/2SM FG VV000 FM261100 01008KT 4SM BR BKN060 FM261300 03010KT P6SM BKN060 FM261600 05012G19KT P6SM BKN035 FM262200 05009KT P6SM BKN060

All Charts
General
Chart Name Download
AIRPORT DIAGRAM
TAKEOFF MINIMUMS
ALTERNATE MINIMUMS

Departures
Chart Name Download
BIMMR ONE (RNAV)
BWALL ONE (RNAV)

Arrivals
Chart Name Download
JUNNR TWO (RNAV)
MCHLN ONE (RNAV)
RCTOR ONE (RNAV)
UNMAN THREE (RNAV)
WORXS ONE (RNAV)

Approaches
Chart Name Download
ILS OR LOC RWY 04
ILS OR LOC RWY 22
ILS RWY 04 (SA CAT I)
ILS RWY 04 (CAT II - III)
RNAV (GPS) RWY 04
RNAV (GPS) RWY 22


Inbound Traffic (Arrivals)

No inbound traffic.


Outbound Traffic (Departures)

No outbound traffic.